Time;durP1;ratioP1;P1;durP2;ratioP2;P2;SDS_P1;SDS_P2;PMS_P1;PMS_P2;Temp;Humidity;BMP_temperature;BMP_pressure;BME280_temperature;BME280_humidity;BME280_pressure;Samples;Min_cycle;Max_cycle;Signal;HPM_P1;HPM_P2
2023/12/03 00:01:08;;;;;;;8.70;8.10;;;;;;;;;;5021404;28;20064;-74
2023/12/03 00:03:38;;;;;;;14.02;12.63;;;;;;;;;;5022461;28;20429;-76
2023/12/03 00:06:08;;;;;;;10.10;9.38;;;;;;;;;;5023312;28;20049;-76
2023/12/03 00:08:40;;;;;;;10.80;9.90;;;;;;;;;;5022925;28;20061;-75
2023/12/03 00:11:19;;;;;;;15.13;13.80;;;;;;;;;;5022585;28;20436;-77
2023/12/03 00:13:48;;;;;;;14.57;13.35;;;;;;;;;;5027326;28;20080;-76
2023/12/03 00:16:19;;;;;;;13.50;12.20;;;;;;;;;;5032869;28;20057;-75
2023/12/03 00:18:49;;;;;;;11.52;10.52;;;;;;;;;;5029724;28;20040;-72
2023/12/03 00:21:20;;;;;;;10.60;9.60;;;;;;;;;;5023315;28;20527;-73
2023/12/03 00:23:52;;;;;;;9.23;8.52;;;;;;;;;;5022349;28;20516;-75
2023/12/03 00:26:21;;;;;;;10.93;9.98;;;;;;;;;;5022450;28;20053;-75
2023/12/03 00:28:52;;;;;;;14.38;13.32;;;;;;;;;;5022245;28;20415;-73
2023/12/03 00:31:22;;;;;;;10.80;9.90;;;;;;;;;;5021415;28;20038;-75
2023/12/03 00:33:53;;;;;;;13.82;12.85;;;;;;;;;;5024817;28;20427;-74
2023/12/03 00:36:23;;;;;;;8.98;7.95;;;;;;;;;;5021634;28;20037;-74
2023/12/03 00:38:54;;;;;;;10.10;9.02;;;;;;;;;;5021642;28;20064;-76
2023/12/03 00:41:25;;;;;;;11.02;9.50;;;;;;;;;;5023264;28;20052;-74
2023/12/03 00:43:56;;;;;;;11.90;8.60;;;;;;;;;;5030568;28;20060;-86
2023/12/03 00:46:26;;;;;;;14.05;9.77;;;;;;;;;;5032367;28;20052;-74
2023/12/03 00:48:56;;;;;;;10.90;9.75;;;;;;;;;;5032693;28;20052;-73
2023/12/03 00:51:28;;;;;;;9.57;8.77;;;;;;;;;;5031853;28;20044;-74
2023/12/03 00:53:59;;;;;;;11.60;9.20;;;;;;;;;;5032109;28;20060;-73
2023/12/03 00:56:30;;;;;;;10.65;9.85;;;;;;;;;;5031075;28;20034;-76
2023/12/03 00:58:59;;;;;;;11.13;10.10;;;;;;;;;;5030231;28;20046;-74
2023/12/03 01:01:29;;;;;;;9.45;8.35;;;;;;;;;;5038901;28;20052;-75
2023/12/03 01:04:00;;;;;;;9.52;8.10;;;;;;;;;;5037268;28;20535;-74
2023/12/03 01:06:31;;;;;;;10.15;9.27;;;;;;;;;;5031157;28;20045;-72
2023/12/03 01:09:01;;;;;;;9.85;8.32;;;;;;;;;;5032385;28;20052;-72
2023/12/03 01:11:31;;;;;;;11.88;7.97;;;;;;;;;;5031991;28;20734;-74
2023/12/03 01:14:05;;;;;;;9.75;8.50;;;;;;;;;;5030294;28;20049;-75
2023/12/03 01:16:36;;;;;;;10.43;9.60;;;;;;;;;;5030389;28;20518;-73
2023/12/03 01:19:05;;;;;;;29.15;27.23;;;;;;;;;;5031123;28;20682;-73
2023/12/03 01:21:36;;;;;;;34.17;31.77;;;;;;;;;;5031150;28;20041;-74
2023/12/03 01:24:06;;;;;;;31.02;28.85;;;;;;;;;;5029685;28;20652;-74
2023/12/03 01:26:36;;;;;;;25.33;23.15;;;;;;;;;;5030453;28;20040;-74
2023/12/03 01:29:06;;;;;;;31.13;28.67;;;;;;;;;;5034270;28;20053;-73
2023/12/03 01:31:38;;;;;;;31.15;29.17;;;;;;;;;;5041375;28;20068;-74
2023/12/03 01:34:08;;;;;;;27.67;25.83;;;;;;;;;;5041517;28;20057;-75
2023/12/03 01:36:38;;;;;;;31.67;29.75;;;;;;;;;;5041884;28;20285;-76
2023/12/03 01:39:08;;;;;;;11.38;9.63;;;;;;;;;;5041289;28;20053;-74
2023/12/03 01:41:39;;;;;;;16.02;10.32;;;;;;;;;;5040510;28;20044;-74
2023/12/03 01:44:10;;;;;;;10.60;9.80;;;;;;;;;;5040706;28;20057;-73
2023/12/03 01:46:40;;;;;;;13.15;10.90;;;;;;;;;;5041189;28;20053;-74
2023/12/03 01:49:10;;;;;;;11.23;10.07;;;;;;;;;;5041554;28;20046;-73
2023/12/03 01:51:40;;;;;;;12.00;11.13;;;;;;;;;;5041617;28;20049;-75
2023/12/03 01:54:12;;;;;;;10.18;9.05;;;;;;;;;;5041943;28;20065;-75
2023/12/03 01:56:42;;;;;;;11.38;9.70;;;;;;;;;;5041658;28;20052;-76
2023/12/03 01:59:12;;;;;;;12.60;11.43;;;;;;;;;;5042366;28;20045;-74
2023/12/03 02:01:43;;;;;;;9.85;9.05;;;;;;;;;;5039598;28;20044;-75
2023/12/03 02:04:13;;;;;;;10.35;9.45;;;;;;;;;;5041009;28;20045;-75
2023/12/03 02:06:44;;;;;;;14.23;11.57;;;;;;;;;;5041460;28;20057;-74
2023/12/03 02:09:16;;;;;;;11.48;10.23;;;;;;;;;;5041211;28;20045;-74
2023/12/03 02:11:47;;;;;;;10.93;9.90;;;;;;;;;;5042278;28;20068;-75
2023/12/03 02:14:17;;;;;;;13.43;12.20;;;;;;;;;;5045360;28;20072;-74
2023/12/03 02:16:49;;;;;;;12.93;11.93;;;;;;;;;;5044805;28;20049;-75
2023/12/03 02:19:20;;;;;;;13.65;12.52;;;;;;;;;;5044917;28;20052;-75
2023/12/03 02:21:50;;;;;;;15.25;13.85;;;;;;;;;;5044512;28;20049;-75
2023/12/03 02:24:20;;;;;;;14.55;13.05;;;;;;;;;;5043178;28;20048;-76
2023/12/03 02:26:51;;;;;;;14.95;13.18;;;;;;;;;;5044813;28;20095;-75
2023/12/03 02:29:22;;;;;;;14.77;13.25;;;;;;;;;;5044716;28;20060;-75
2023/12/03 02:31:52;;;;;;;13.98;12.63;;;;;;;;;;5043193;28;20048;-74
2023/12/03 02:34:22;;;;;;;14.18;12.48;;;;;;;;;;5044252;28;20055;-75
2023/12/03 02:36:53;;;;;;;15.00;11.15;;;;;;;;;;5044607;28;20049;-75
2023/12/03 02:39:24;;;;;;;12.98;11.75;;;;;;;;;;5044590;28;20057;-75
2023/12/03 02:41:55;;;;;;;9.27;8.57;;;;;;;;;;5045571;28;20749;-75
2023/12/03 02:44:24;;;;;;;8.75;7.90;;;;;;;;;;5044258;28;20049;-74
2023/12/03 02:46:56;;;;;;;9.82;8.95;;;;;;;;;;5044469;28;20040;-74
2023/12/03 02:49:26;;;;;;;14.63;13.50;;;;;;;;;;5044905;28;20397;-74
2023/12/03 02:51:56;;;;;;;12.57;11.60;;;;;;;;;;5044693;28;20415;-74
2023/12/03 02:54:26;;;;;;;11.02;10.13;;;;;;;;;;5043963;28;20436;-74
2023/12/03 02:56:56;;;;;;;8.95;7.70;;;;;;;;;;5043813;28;20033;-74
2023/12/03 02:59:26;;;;;;;8.15;7.00;;;;;;;;;;5042730;28;20054;-74
2023/12/03 03:01:57;;;;;;;11.25;8.63;;;;;;;;;;5046040;28;20579;-74
2023/12/03 03:04:27;;;;;;;10.45;8.70;;;;;;;;;;5046274;28;20040;-74
2023/12/03 03:06:57;;;;;;;8.93;8.10;;;;;;;;;;5046062;28;20037;-74
2023/12/03 03:09:27;;;;;;;9.00;8.27;;;;;;;;;;5045987;28;20046;-74
2023/12/03 03:11:58;;;;;;;10.13;9.35;;;;;;;;;;5046902;28;20044;-74
2023/12/03 03:14:29;;;;;;;9.13;8.32;;;;;;;;;;5044351;28;20053;-75
2023/12/03 03:16:58;;;;;;;8.00;7.25;;;;;;;;;;5044684;28;20044;-75
2023/12/03 03:19:29;;;;;;;8.05;7.30;;;;;;;;;;5044200;28;20045;-74
2023/12/03 03:22:00;;;;;;;9.02;7.30;;;;;;;;;;5043660;28;20059;-75
2023/12/03 03:24:30;;;;;;;9.05;7.90;;;;;;;;;;5045291;28;20052;-75
2023/12/03 03:27:01;;;;;;;6.80;6.30;;;;;;;;;;5043972;28;20060;-78
2023/12/03 03:29:31;;;;;;;8.05;7.43;;;;;;;;;;5044480;28;20048;-74
2023/12/03 03:32:01;;;;;;;6.30;5.40;;;;;;;;;;5042734;28;20045;-74
2023/12/03 03:34:31;;;;;;;8.10;7.50;;;;;;;;;;5042501;28;20057;-74
2023/12/03 03:37:01;;;;;;;11.68;10.52;;;;;;;;;;5043553;28;20419;-74
2023/12/03 03:39:31;;;;;;;9.20;8.40;;;;;;;;;;5043654;28;20063;-74
2023/12/03 03:42:02;;;;;;;7.40;6.82;;;;;;;;;;5043008;28;20044;-74
2023/12/03 03:44:33;;;;;;;6.53;6.07;;;;;;;;;;5042971;28;20049;-75
2023/12/03 03:47:04;;;;;;;8.55;6.30;;;;;;;;;;5042049;28;20072;-76
2023/12/03 03:49:34;;;;;;;7.45;6.47;;;;;;;;;;5042818;28;20610;-74
2023/12/03 03:52:06;;;;;;;6.82;5.15;;;;;;;;;;5042365;28;20052;-76
2023/12/03 03:54:43;;;;;;;9.13;7.55;;;;;;;;;;5043496;28;20409;-74
2023/12/03 03:57:13;;;;;;;6.53;5.93;;;;;;;;;;5043687;28;20502;-74
2023/12/03 03:59:44;;;;;;;7.43;6.43;;;;;;;;;;5042964;28;20469;-75
2023/12/03 04:02:15;;;;;;;6.93;6.43;;;;;;;;;;5043321;28;20044;-74
2023/12/03 04:04:45;;;;;;;9.23;6.47;;;;;;;;;;5042808;28;20448;-74
2023/12/03 04:07:17;;;;;;;13.00;7.30;;;;;;;;;;5042679;28;20049;-74
2023/12/03 04:09:48;;;;;;;6.88;6.32;;;;;;;;;;5043017;28;20606;-74
2023/12/03 04:12:19;;;;;;;7.60;4.93;;;;;;;;;;5042674;28;20044;-75
2023/12/03 04:14:49;;;;;;;6.50;5.10;;;;;;;;;;5042186;28;20517;-74
2023/12/03 04:17:19;;;;;;;7.53;6.75;;;;;;;;;;5042711;28;20072;-75
2023/12/03 04:19:49;;;;;;;8.00;5.60;;;;;;;;;;5042025;28;20045;-74
2023/12/03 04:22:19;;;;;;;5.32;4.90;;;;;;;;;;5042627;28;20052;-75
2023/12/03 04:24:50;;;;;;;7.32;6.32;;;;;;;;;;5043070;28;20526;-75
2023/12/03 04:27:20;;;;;;;12.10;4.80;;;;;;;;;;5040469;28;20072;-74
2023/12/03 04:29:52;;;;;;;9.18;5.47;;;;;;;;;;5041129;28;20049;-75
2023/12/03 04:32:22;;;;;;;8.45;7.78;;;;;;;;;;5041938;28;20049;-74
2023/12/03 04:34:52;;;;;;;11.27;5.65;;;;;;;;;;5041602;28;20049;-74
2023/12/03 04:37:24;;;;;;;10.38;9.63;;;;;;;;;;5042527;28;20419;-74
2023/12/03 04:39:53;;;;;;;10.98;7.07;;;;;;;;;;5042991;28;20503;-75
2023/12/03 04:42:23;;;;;;;10.60;8.52;;;;;;;;;;5042064;28;20048;-74
2023/12/03 04:44:54;;;;;;;8.73;7.50;;;;;;;;;;5042052;28;20052;-76
2023/12/03 04:47:24;;;;;;;5.30;4.85;;;;;;;;;;5041078;28;20526;-73
2023/12/03 04:49:54;;;;;;;13.30;6.85;;;;;;;;;;5041700;28;20060;-74
2023/12/03 04:52:25;;;;;;;7.13;6.22;;;;;;;;;;5042019;28;20051;-75
2023/12/03 04:54:56;;;;;;;11.20;8.93;;;;;;;;;;5042450;28;20399;-75
2023/12/03 04:57:26;;;;;;;7.13;5.97;;;;;;;;;;5042082;28;20508;-74
2023/12/03 04:59:57;;;;;;;12.50;7.15;;;;;;;;;;5041447;28;20508;-74
2023/12/03 05:02:27;;;;;;;16.15;7.10;;;;;;;;;;5041492;28;20052;-75
2023/12/03 05:04:58;;;;;;;9.55;6.63;;;;;;;;;;5042041;28;20053;-74
2023/12/03 05:07:27;;;;;;;11.43;5.80;;;;;;;;;;5041604;28;20053;-73
2023/12/03 05:09:58;;;;;;;6.65;5.93;;;;;;;;;;5042412;28;20040;-74
2023/12/03 05:12:28;;;;;;;13.43;9.98;;;;;;;;;;5041574;28;20669;-74
2023/12/03 05:14:58;;;;;;;15.00;6.13;;;;;;;;;;5041897;28;20045;-74
2023/12/03 05:17:28;;;;;;;13.82;7.95;;;;;;;;;;5041657;28;20052;-74
2023/12/03 05:19:59;;;;;;;9.90;7.20;;;;;;;;;;5040891;28;20527;-74
2023/12/03 05:22:28;;;;;;;8.38;7.15;;;;;;;;;;5041933;28;20522;-75
2023/12/03 05:24:59;;;;;;;8.13;6.72;;;;;;;;;;5041308;28;20049;-75
2023/12/03 05:27:29;;;;;;;16.40;8.18;;;;;;;;;;5039951;28;20052;-75
2023/12/03 05:30:00;;;;;;;9.55;7.20;;;;;;;;;;5041974;28;20472;-73
2023/12/03 05:32:30;;;;;;;9.52;6.03;;;;;;;;;;5041124;28;20049;-73
2023/12/03 05:35:00;;;;;;;11.30;10.15;;;;;;;;;;5041055;28;20443;-74
2023/12/03 05:37:30;;;;;;;10.30;7.38;;;;;;;;;;5041065;28;20079;-73
2023/12/03 05:40:00;;;;;;;7.72;7.18;;;;;;;;;;5041915;28;20049;-73
2023/12/03 05:42:30;;;;;;;16.23;7.72;;;;;;;;;;5042017;28;20383;-74
2023/12/03 05:45:00;;;;;;;9.65;7.53;;;;;;;;;;5042322;28;20045;-74
2023/12/03 05:47:31;;;;;;;7.68;6.93;;;;;;;;;;5044433;28;20048;-74
2023/12/03 05:50:02;;;;;;;11.48;8.40;;;;;;;;;;5044634;28;20060;-74
2023/12/03 05:52:33;;;;;;;8.05;7.28;;;;;;;;;;5045843;28;20500;-74
2023/12/03 05:55:04;;;;;;;13.77;8.68;;;;;;;;;;5046187;28;20052;-73
2023/12/03 05:57:34;;;;;;;12.57;11.48;;;;;;;;;;5045009;28;20416;-78
2023/12/03 06:00:06;;;;;;;7.80;7.10;;;;;;;;;;5045175;28;20049;-74
2023/12/03 06:02:36;;;;;;;11.93;10.00;;;;;;;;;;5044877;28;20577;-73
2023/12/03 06:05:07;;;;;;;8.32;7.63;;;;;;;;;;5045903;28;20064;-74
2023/12/03 06:07:37;;;;;;;8.68;7.15;;;;;;;;;;5045535;28;20079;-73
2023/12/03 06:10:08;;;;;;;9.27;8.32;;;;;;;;;;5045062;28;20049;-74
2023/12/03 06:12:38;;;;;;;9.05;6.78;;;;;;;;;;5045768;28;20049;-73
2023/12/03 06:15:09;;;;;;;8.93;7.90;;;;;;;;;;5045252;28;20518;-74
2023/12/03 06:17:40;;;;;;;15.88;14.57;;;;;;;;;;5045149;28;20048;-74
2023/12/03 06:20:10;;;;;;;10.35;9.10;;;;;;;;;;5043470;28;20354;-74
2023/12/03 06:22:41;;;;;;;9.80;7.50;;;;;;;;;;5043948;28;20049;-75
2023/12/03 06:25:12;;;;;;;11.23;8.50;;;;;;;;;;5044744;28;20063;-74
2023/12/03 06:27:43;;;;;;;16.63;9.18;;;;;;;;;;5044343;28;20496;-74
2023/12/03 06:30:14;;;;;;;11.40;6.95;;;;;;;;;;5043681;28;20056;-76
2023/12/03 06:32:46;;;;;;;15.60;8.40;;;;;;;;;;5044813;28;20048;-73
2023/12/03 06:35:16;;;;;;;10.18;8.73;;;;;;;;;;5044424;28;20037;-73
2023/12/03 06:37:46;;;;;;;10.77;9.35;;;;;;;;;;5044145;28;20057;-73
2023/12/03 06:40:16;;;;;;;10.95;9.13;;;;;;;;;;5044257;28;20527;-74
2023/12/03 06:42:47;;;;;;;9.80;8.23;;;;;;;;;;5043057;28;20104;-73
2023/12/03 06:45:17;;;;;;;13.30;10.48;;;;;;;;;;5044927;28;20052;-75
2023/12/03 06:47:47;;;;;;;10.43;8.45;;;;;;;;;;5044470;28;20040;-74
2023/12/03 06:50:17;;;;;;;12.60;10.73;;;;;;;;;;5044128;28;20048;-74
2023/12/03 06:52:47;;;;;;;14.90;8.75;;;;;;;;;;5044668;28;20072;-74
2023/12/03 06:55:19;;;;;;;14.27;9.32;;;;;;;;;;5044087;28;20048;-74
2023/12/03 06:57:51;;;;;;;12.32;8.40;;;;;;;;;;5042321;28;20599;-73
2023/12/03 07:00:23;;;;;;;18.65;9.10;;;;;;;;;;5043722;28;20055;-73
2023/12/03 07:02:53;;;;;;;14.18;9.30;;;;;;;;;;5044017;28;20096;-73
2023/12/03 07:05:24;;;;;;;9.80;7.93;;;;;;;;;;5044448;28;20044;-74
2023/12/03 07:07:55;;;;;;;11.75;9.20;;;;;;;;;;5044143;28;20033;-74
2023/12/03 07:10:25;;;;;;;12.30;8.10;;;;;;;;;;5043037;28;20057;-74
2023/12/03 07:12:56;;;;;;;13.57;11.10;;;;;;;;;;5043669;28;20420;-73
2023/12/03 07:15:26;;;;;;;11.27;8.25;;;;;;;;;;5043250;28;20053;-73
2023/12/03 07:17:57;;;;;;;9.40;8.45;;;;;;;;;;5043190;28;20056;-73
2023/12/03 07:20:28;;;;;;;9.15;8.35;;;;;;;;;;5043407;28;20060;-73
2023/12/03 07:22:57;;;;;;;13.35;7.65;;;;;;;;;;5043747;28;20055;-74
2023/12/03 07:25:28;;;;;;;12.07;8.57;;;;;;;;;;5044053;28;20063;-73
2023/12/03 07:27:58;;;;;;;11.00;8.05;;;;;;;;;;5043061;28;20049;-74
2023/12/03 07:30:28;;;;;;;14.05;8.40;;;;;;;;;;5043461;28;20045;-74
2023/12/03 07:32:58;;;;;;;11.23;8.68;;;;;;;;;;5043454;28;20049;-74
2023/12/03 07:35:29;;;;;;;8.35;6.57;;;;;;;;;;5043748;28;20045;-74
2023/12/03 07:37:59;;;;;;;14.40;8.85;;;;;;;;;;5043568;28;20048;-73
2023/12/03 07:40:30;;;;;;;12.55;8.68;;;;;;;;;;5043470;28;20068;-75
2023/12/03 07:43:00;;;;;;;9.57;7.63;;;;;;;;;;5044061;28;20041;-75
2023/12/03 07:45:30;;;;;;;9.93;8.48;;;;;;;;;;5043079;28;20858;-73
2023/12/03 07:48:01;;;;;;;9.88;7.10;;;;;;;;;;5042912;28;20036;-73
2023/12/03 07:50:31;;;;;;;10.95;8.65;;;;;;;;;;5042801;28;20053;-74
2023/12/03 07:53:03;;;;;;;11.27;8.45;;;;;;;;;;5042447;28;20045;-74
2023/12/03 07:55:33;;;;;;;11.75;8.23;;;;;;;;;;5043128;28;20485;-74
2023/12/03 07:58:04;;;;;;;9.75;8.88;;;;;;;;;;5041465;28;20052;-73
2023/12/03 08:00:34;;;;;;;10.90;9.02;;;;;;;;;;5042973;28;20056;-75
2023/12/03 08:03:05;;;;;;;8.98;7.90;;;;;;;;;;5043176;28;20645;-75
2023/12/03 08:05:35;;;;;;;13.05;10.60;;;;;;;;;;5042474;28;20522;-75
2023/12/03 08:08:05;;;;;;;10.65;9.35;;;;;;;;;;5042313;28;20055;-72
2023/12/03 08:10:36;;;;;;;9.55;8.27;;;;;;;;;;5042306;28;20041;-73
2023/12/03 08:13:06;;;;;;;11.88;9.38;;;;;;;;;;5042502;28;20400;-74
2023/12/03 08:15:35;;;;;;;9.75;7.75;;;;;;;;;;5041255;28;20057;-74
2023/12/03 08:18:06;;;;;;;8.70;7.90;;;;;;;;;;5042328;28;20515;-73
2023/12/03 08:20:37;;;;;;;13.00;7.78;;;;;;;;;;5040738;28;20061;-74
2023/12/03 08:23:08;;;;;;;11.52;8.70;;;;;;;;;;5043230;28;20049;-73
2023/12/03 08:25:37;;;;;;;9.60;7.65;;;;;;;;;;5042246;28;20053;-74
2023/12/03 08:28:10;;;;;;;11.63;8.80;;;;;;;;;;5040240;28;20052;-74
2023/12/03 08:30:41;;;;;;;9.57;8.27;;;;;;;;;;5041691;28;20053;-73
2023/12/03 08:33:11;;;;;;;16.63;8.40;;;;;;;;;;5042406;28;20057;-73
2023/12/03 08:35:43;;;;;;;10.10;7.85;;;;;;;;;;5042278;28;20052;-74
2023/12/03 08:38:13;;;;;;;13.88;8.98;;;;;;;;;;5042440;28;20636;-75
2023/12/03 08:40:44;;;;;;;8.90;7.60;;;;;;;;;;5041909;28;20048;-74
2023/12/03 08:43:15;;;;;;;11.98;7.75;;;;;;;;;;5041156;28;20049;-74
2023/12/03 08:45:45;;;;;;;12.10;11.07;;;;;;;;;;5042245;28;20381;-75
2023/12/03 08:48:15;;;;;;;12.05;7.30;;;;;;;;;;5041762;28;20051;-73
2023/12/03 08:50:45;;;;;;;10.20;9.32;;;;;;;;;;5041850;28;20076;-74
2023/12/03 08:53:16;;;;;;;10.93;7.97;;;;;;;;;;5041467;28;20508;-74
2023/12/03 08:55:47;;;;;;;15.32;8.05;;;;;;;;;;5042017;28;20052;-74
2023/12/03 08:58:17;;;;;;;10.05;8.90;;;;;;;;;;5042357;28;20049;-75
2023/12/03 09:00:47;;;;;;;9.25;8.25;;;;;;;;;;5041844;28;20041;-74
2023/12/03 09:03:18;;;;;;;11.48;9.55;;;;;;;;;;5041856;28;20056;-74
2023/12/03 09:05:48;;;;;;;11.68;9.00;;;;;;;;;;5041328;28;20586;-74
2023/12/03 09:08:18;;;;;;;8.45;7.20;;;;;;;;;;5042039;28;20049;-74
2023/12/03 09:10:48;;;;;;;9.52;7.53;;;;;;;;;;5042164;28;20045;-73
2023/12/03 09:13:19;;;;;;;10.25;9.27;;;;;;;;;;5041469;28;20519;-72
2023/12/03 09:15:50;;;;;;;15.80;9.48;;;;;;;;;;5041707;28;20059;-74
2023/12/03 09:18:21;;;;;;;15.00;10.65;;;;;;;;;;5041401;28;20045;-75
2023/12/03 09:20:52;;;;;;;17.52;8.10;;;;;;;;;;5042038;28;20049;-72
2023/12/03 09:23:24;;;;;;;12.07;9.00;;;;;;;;;;5041791;28;20115;-74
2023/12/03 09:25:53;;;;;;;16.77;8.88;;;;;;;;;;5041222;28;20053;-73
2023/12/03 09:28:24;;;;;;;13.07;8.68;;;;;;;;;;5041155;28;20504;-74
2023/12/03 09:30:56;;;;;;;10.73;7.78;;;;;;;;;;5039587;28;20060;-74
2023/12/03 09:33:28;;;;;;;8.93;8.02;;;;;;;;;;5041946;28;20033;-74
2023/12/03 09:35:58;;;;;;;11.10;9.85;;;;;;;;;;5042393;28;20053;-74
2023/12/03 09:38:28;;;;;;;16.38;8.07;;;;;;;;;;5041909;28;20064;-73
2023/12/03 09:41:03;;;;;;;11.15;9.63;;;;;;;;;;5042231;28;20045;-73
2023/12/03 09:43:35;;;;;;;;;;;;;;;;;;5042525;28;20052;-74
2023/12/03 09:46:15;;;;;;;8.40;7.60;;;;;;;;;;5041997;28;19924;-75
2023/12/03 09:48:47;;;;;;;9.68;8.88;;;;;;;;;;5041324;28;20416;-75
2023/12/03 09:51:19;;;;;;;10.77;8.02;;;;;;;;;;5042899;28;20653;-74
2023/12/03 09:53:50;;;;;;;10.40;8.45;;;;;;;;;;5041412;28;20514;-76
2023/12/03 09:56:21;;;;;;;11.48;8.32;;;;;;;;;;5041643;28;20504;-74
2023/12/03 09:58:53;;;;;;;9.80;7.80;;;;;;;;;;5041470;28;20055;-75
2023/12/03 10:01:25;;;;;;;9.55;8.20;;;;;;;;;;5041127;28;20044;-74
2023/12/03 10:03:55;;;;;;;10.15;7.53;;;;;;;;;;5041309;28;20045;-75
2023/12/03 10:06:25;;;;;;;11.18;7.75;;;;;;;;;;5041047;28;20053;-73
2023/12/03 10:08:56;;;;;;;6.35;5.78;;;;;;;;;;5042038;28;20049;-74
2023/12/03 10:11:32;;;;;;;8.32;7.55;;;;;;;;;;5041802;28;20057;-76
2023/12/03 10:14:05;;;;;;;23.95;22.20;;;;;;;;;;5040450;28;20423;-74
2023/12/03 10:16:36;;;;;;;7.32;6.68;;;;;;;;;;5041221;28;20484;-73
2023/12/03 10:19:06;;;;;;;8.35;7.68;;;;;;;;;;5040911;28;20060;-75
2023/12/03 10:21:37;;;;;;;8.10;7.32;;;;;;;;;;5041281;28;20041;-74
2023/12/03 10:24:07;;;;;;;8.05;7.30;;;;;;;;;;5040865;28;20048;-75
2023/12/03 10:26:50;;;;;;;7.72;7.03;;;;;;;;;;5040920;28;20816;-75
2023/12/03 10:29:26;;;;;;;8.88;8.20;;;;;;;;;;5040968;28;20052;-74
2023/12/03 10:31:58;;;;;;;11.43;10.32;;;;;;;;;;5040840;28;20049;-74
2023/12/03 10:34:28;;;;;;;11.50;10.27;;;;;;;;;;5043782;28;20064;-74
2023/12/03 10:37:00;;;;;;;9.05;7.75;;;;;;;;;;5044664;28;20045;-74
2023/12/03 10:39:31;;;;;;;8.20;7.25;;;;;;;;;;5042634;28;20049;-76
2023/12/03 10:42:02;;;;;;;14.20;13.10;;;;;;;;;;5044319;28;20041;-73
2023/12/03 10:44:32;;;;;;;14.02;12.93;;;;;;;;;;5044405;28;20041;-74
2023/12/03 10:47:03;;;;;;;12.55;11.38;;;;;;;;;;5042975;28;20045;-74
2023/12/03 10:49:34;;;;;;;12.40;11.23;;;;;;;;;;5044572;28;20522;-75
2023/12/03 10:52:05;;;;;;;12.43;11.30;;;;;;;;;;5042809;28;20072;-73
2023/12/03 10:54:35;;;;;;;15.60;14.50;;;;;;;;;;5043809;28;20116;-75
2023/12/03 10:57:07;;;;;;;10.02;9.30;;;;;;;;;;5044542;28;20052;-75
2023/12/03 10:59:40;;;;;;;10.95;10.15;;;;;;;;;;5043620;28;20637;-75
2023/12/03 11:02:12;;;;;;;11.25;10.55;;;;;;;;;;5043495;28;20512;-75
2023/12/03 11:05:01;;;;;;;13.10;12.10;;;;;;;;;;5043938;28;20048;-75
2023/12/03 11:07:33;;;;;;;12.63;11.82;;;;;;;;;;5044209;28;20049;-75
2023/12/03 11:10:05;;;;;;;11.30;9.75;;;;;;;;;;5044058;28;20037;-75
2023/12/03 11:12:37;;;;;;;13.68;12.88;;;;;;;;;;5044479;28;20053;-74
2023/12/03 11:15:09;;;;;;;8.85;8.25;;;;;;;;;;5043476;28;20064;-74
2023/12/03 11:17:43;;;;;;;12.00;11.07;;;;;;;;;;5044274;28;20063;-75
2023/12/03 11:20:21;;;;;;;12.02;11.23;;;;;;;;;;5043503;28;20060;-78
2023/12/03 11:23:26;;;;;;;13.43;12.63;;;;;;;;;;5043923;28;20532;-73
2023/12/03 11:26:13;;;;;;;14.75;13.50;;;;;;;;;;5043967;28;20041;-76
2023/12/03 11:28:59;;;;;;;12.30;11.40;;;;;;;;;;5043734;28;20049;-74
2023/12/03 11:31:29;;;;;;;13.32;12.43;;;;;;;;;;5042917;28;20056;-75
2023/12/03 11:34:03;;;;;;;13.23;11.93;;;;;;;;;;5043428;28;20060;-74
2023/12/03 11:36:52;;;;;;;14.18;12.88;;;;;;;;;;5043719;28;20047;-76
2023/12/03 11:39:28;;;;;;;16.17;14.93;;;;;;;;;;5041524;28;20049;-75
2023/12/03 11:42:00;;;;;;;9.50;8.57;;;;;;;;;;5042585;28;20517;-77
2023/12/03 11:44:31;;;;;;;7.82;7.13;;;;;;;;;;5041933;28;20045;-76
2023/12/03 11:47:08;;;;;;;9.90;7.57;;;;;;;;;;5042983;28;20517;-76
2023/12/03 11:49:40;;;;;;;11.38;7.43;;;;;;;;;;5043268;28;20797;-76
2023/12/03 11:52:11;;;;;;;10.70;9.80;;;;;;;;;;5043330;28;20049;-76
2023/12/03 11:54:50;;;;;;;9.80;9.00;;;;;;;;;;5043657;28;20049;-76
2023/12/03 11:57:21;;;;;;;12.88;11.98;;;;;;;;;;5043767;28;20495;-75
2023/12/03 11:59:51;;;;;;;10.52;9.02;;;;;;;;;;5044047;28;20088;-75
2023/12/03 12:02:21;;;;;;;9.95;8.95;;;;;;;;;;5043593;28;20523;-76
2023/12/03 12:04:52;;;;;;;13.93;12.82;;;;;;;;;;5041707;28;20057;-77
2023/12/03 12:07:23;;;;;;;9.43;8.57;;;;;;;;;;5043106;28;20064;-76
2023/12/03 12:09:53;;;;;;;10.85;9.85;;;;;;;;;;5042936;28;20068;-81
2023/12/03 12:12:23;;;;;;;7.90;6.95;;;;;;;;;;5043078;28;20891;-76
2023/12/03 12:14:53;;;;;;;10.05;6.30;;;;;;;;;;5042764;28;20056;-77
2023/12/03 12:17:25;;;;;;;5.53;4.90;;;;;;;;;;5042458;28;20053;-79
2023/12/03 12:19:56;;;;;;;5.28;4.78;;;;;;;;;;5042701;28;20048;-76
2023/12/03 12:22:43;;;;;;;6.63;5.65;;;;;;;;;;5042389;28;20059;-76
2023/12/03 12:25:14;;;;;;;7.82;5.40;;;;;;;;;;5042421;28;20044;-78
2023/12/03 12:27:45;;;;;;;8.80;5.78;;;;;;;;;;5042390;28;20052;-76
2023/12/03 12:30:25;;;;;;;5.97;5.13;;;;;;;;;;5042313;28;20044;-76
2023/12/03 12:33:04;;;;;;;11.10;10.10;;;;;;;;;;5042998;28;20049;-76
2023/12/03 12:35:35;;;;;;;6.60;6.10;;;;;;;;;;5042933;28;20060;-81
2023/12/03 12:38:07;;;;;;;7.70;5.82;;;;;;;;;;5042138;28;20059;-76
2023/12/03 12:40:52;;;;;;;7.80;6.47;;;;;;;;;;5042611;28;20412;-79
2023/12/03 12:43:23;;;;;;;6.32;5.72;;;;;;;;;;5042641;28;20041;-77
2023/12/03 12:45:53;;;;;;;8.27;7.57;;;;;;;;;;5042329;28;20424;-76
2023/12/03 12:48:32;;;;;;;6.93;6.25;;;;;;;;;;5042669;28;20049;-77
2023/12/03 12:51:04;;;;;;;6.45;5.93;;;;;;;;;;5042570;28;20052;-76
2023/12/03 12:53:58;;;;;;;5.75;5.03;;;;;;;;;;5042479;28;20041;-77
2023/12/03 12:56:29;;;;;;;;;;;;;;;;;;5041964;28;20045;-77
2023/12/03 12:58:59;;;;;;;11.65;10.60;;;;;;;;;;5042564;28;19928;-76
2023/12/03 13:01:30;;;;;;;13.35;12.23;;;;;;;;;;5042037;28;20071;-75
2023/12/03 13:04:06;;;;;;;13.40;12.30;;;;;;;;;;5041701;28;20049;-75
2023/12/03 13:06:36;;;;;;;7.18;6.47;;;;;;;;;;5042511;28;20049;-76
2023/12/03 13:09:06;;;;;;;7.07;6.38;;;;;;;;;;5042526;28;20049;-76
2023/12/03 13:11:36;;;;;;;5.55;5.07;;;;;;;;;;5041864;28;20049;-75
2023/12/03 13:14:07;;;;;;;7.68;6.93;;;;;;;;;;5041694;28;20730;-74
2023/12/03 13:16:37;;;;;;;6.93;6.25;;;;;;;;;;5042015;28;20048;-75
2023/12/03 13:19:08;;;;;;;6.50;5.90;;;;;;;;;;5041991;28;20424;-75
2023/12/03 13:21:39;;;;;;;10.38;9.45;;;;;;;;;;5042079;28;20072;-74
2023/12/03 13:24:10;;;;;;;11.65;10.50;;;;;;;;;;5041345;28;20679;-75
2023/12/03 13:26:54;;;;;;;10.90;8.52;;;;;;;;;;5041894;28;20045;-75
2023/12/03 13:29:25;;;;;;;10.70;9.88;;;;;;;;;;5041776;28;20049;-76
2023/12/03 13:31:55;;;;;;;9.43;8.52;;;;;;;;;;5042085;28;20527;-75
2023/12/03 13:34:26;;;;;;;10.75;9.77;;;;;;;;;;5042069;28;20523;-75
2023/12/03 13:36:57;;;;;;;9.48;8.65;;;;;;;;;;5042086;28;20049;-74
2023/12/03 13:39:27;;;;;;;9.70;8.70;;;;;;;;;;5041710;28;20056;-75
2023/12/03 13:41:58;;;;;;;9.73;8.82;;;;;;;;;;5042115;28;20594;-79
2023/12/03 13:44:28;;;;;;;10.63;9.57;;;;;;;;;;5041413;28;20053;-76
2023/12/03 13:46:59;;;;;;;9.60;8.70;;;;;;;;;;5041295;28;20037;-74
2023/12/03 13:49:32;;;;;;;8.45;7.75;;;;;;;;;;5041176;28;20049;-74
2023/12/03 13:52:04;;;;;;;8.40;7.60;;;;;;;;;;5041762;28;20052;-74
2023/12/03 13:54:36;;;;;;;8.82;8.02;;;;;;;;;;5040966;28;20060;-75
2023/12/03 13:57:07;;;;;;;9.88;9.15;;;;;;;;;;5042412;28;20059;-74
2023/12/03 13:59:37;;;;;;;17.13;10.75;;;;;;;;;;5041196;28;20401;-74
2023/12/03 14:02:09;;;;;;;13.05;11.98;;;;;;;;;;5041845;28;20424;-74
2023/12/03 14:04:40;;;;;;;9.60;8.80;;;;;;;;;;5041335;28;20056;-75
2023/12/03 14:07:10;;;;;;;11.00;10.07;;;;;;;;;;5041115;28;20048;-75
2023/12/03 14:09:41;;;;;;;9.35;8.57;;;;;;;;;;5045252;28;20053;-74
2023/12/03 14:12:11;;;;;;;10.57;9.75;;;;;;;;;;5044051;28;20112;-74
2023/12/03 14:14:43;;;;;;;9.85;9.00;;;;;;;;;;5045915;28;20053;-74
2023/12/03 14:17:13;;;;;;;17.63;16.27;;;;;;;;;;5045018;28;20400;-75
2023/12/03 14:19:43;;;;;;;11.45;10.65;;;;;;;;;;5045113;28;20045;-75
2023/12/03 14:22:14;;;;;;;13.52;12.52;;;;;;;;;;5045019;28;20785;-75
2023/12/03 14:24:46;;;;;;;12.00;10.95;;;;;;;;;;5044544;28;20045;-79
2023/12/03 14:27:17;;;;;;;9.90;9.00;;;;;;;;;;5045456;28;20052;-75
2023/12/03 14:29:47;;;;;;;9.63;8.90;;;;;;;;;;5045026;28;20041;-79
2023/12/03 14:32:17;;;;;;;9.82;8.85;;;;;;;;;;5045150;28;20052;-74
2023/12/03 14:34:47;;;;;;;11.85;11.00;;;;;;;;;;5046196;28;20049;-75
2023/12/03 14:37:19;;;;;;;10.75;9.95;;;;;;;;;;5044164;28;20528;-76
2023/12/03 14:39:51;;;;;;;10.98;10.13;;;;;;;;;;5043667;28;20052;-76
2023/12/03 14:42:21;;;;;;;10.40;9.52;;;;;;;;;;5043530;28;20056;-77
2023/12/03 14:44:53;;;;;;;9.95;9.00;;;;;;;;;;5040305;28;20079;-76
2023/12/03 14:47:24;;;;;;;9.52;8.73;;;;;;;;;;5043251;28;20045;-74
2023/12/03 14:49:55;;;;;;;10.27;9.35;;;;;;;;;;5043890;28;20049;-75
2023/12/03 14:52:26;;;;;;;10.00;9.13;;;;;;;;;;5043500;28;20045;-78
2023/12/03 14:54:57;;;;;;;8.57;7.78;;;;;;;;;;5043698;28;20044;-76
2023/12/03 14:57:27;;;;;;;10.32;9.63;;;;;;;;;;5044292;28;20479;-78